sensor_id;sensor_type;location;lat;lon;timestamp;pressure;altitude;pressure_sealevel;temperature;humidity
36386;BME280;24125;47.482;8.770;2023-04-01T00:00:59;95301.63;;;11.72;79.63
36386;BME280;24125;47.482;8.770;2023-04-01T00:03:32;95305.44;;;11.71;79.25
36386;BME280;24125;47.482;8.770;2023-04-01T00:06:05;95312.34;;;11.72;78.66
36386;BME280;24125;47.482;8.770;2023-04-01T00:08:40;95308.09;;;11.71;79.10
36386;BME280;24125;47.482;8.770;2023-04-01T00:11:13;95305.44;;;11.71;78.75
36386;BME280;24125;47.482;8.770;2023-04-01T00:13:46;95312.34;;;11.72;79.59
36386;BME280;24125;47.482;8.770;2023-04-01T00:16:19;95313.47;;;11.71;78.75
36386;BME280;24125;47.482;8.770;2023-04-01T00:18:53;95309.22;;;11.70;78.92
36386;BME280;24125;47.482;8.770;2023-04-01T00:21:26;95311.56;;;11.72;78.57
36386;BME280;24125;47.482;8.770;2023-04-01T00:24:00;95307.34;;;11.71;79.11
36386;BME280;24125;47.482;8.770;2023-04-01T00:26:33;95315.78;;;11.73;79.08
36386;BME280;24125;47.482;8.770;2023-04-01T00:29:05;95314.34;;;11.76;79.21
36386;BME280;24125;47.482;8.770;2023-04-01T00:31:39;95306.31;;;11.76;79.03
36386;BME280;24125;47.482;8.770;2023-04-01T00:34:12;95314.75;;;11.78;78.41
36386;BME280;24125;47.482;8.770;2023-04-01T00:36:45;95311.28;;;11.77;79.35
36386;BME280;24125;47.482;8.770;2023-04-01T00:39:19;95325.09;;;11.79;79.27
36386;BME280;24125;47.482;8.770;2023-04-01T00:41:52;95315.50;;;11.78;79.11
36386;BME280;24125;47.482;8.770;2023-04-01T00:44:25;95322.75;;;11.78;78.97
36386;BME280;24125;47.482;8.770;2023-04-01T00:46:58;95321.63;;;11.79;78.86
36386;BME280;24125;47.482;8.770;2023-04-01T00:49:32;95328.53;;;11.80;79.06
36386;BME280;24125;47.482;8.770;2023-04-01T00:52:06;95325.88;;;11.80;78.78
36386;BME280;24125;47.482;8.770;2023-04-01T00:54:42;95325.88;;;11.80;79.05
36386;BME280;24125;47.482;8.770;2023-04-01T00:57:18;95325.50;;;11.81;78.65
36386;BME280;24125;47.482;8.770;2023-04-01T00:59:52;95325.16;;;11.83;78.53
36386;BME280;24125;47.482;8.770;2023-04-01T01:02:26;95325.59;;;11.85;79.51
36386;BME280;24125;47.482;8.770;2023-04-01T01:04:59;95316.06;;;11.87;79.68
36386;BME280;24125;47.482;8.770;2023-04-01T01:07:33;95315.38;;;11.90;79.19
36386;BME280;24125;47.482;8.770;2023-04-01T01:10:12;95302.78;;;11.91;78.19
36386;BME280;24125;47.482;8.770;2023-04-01T01:12:50;95309.69;;;11.92;78.97
36386;BME280;24125;47.482;8.770;2023-04-01T01:15:26;95309.31;;;11.93;78.83
36386;BME280;24125;47.482;8.770;2023-04-01T01:18:02;95307.81;;;11.96;79.49
36386;BME280;24125;47.482;8.770;2023-04-01T01:21:01;95302.47;;;11.96;80.31
36386;BME280;24125;47.482;8.770;2023-04-01T01:23:48;95305.94;;;11.96;79.55
36386;BME280;24125;47.482;8.770;2023-04-01T01:26:33;95299.81;;;11.96;80.25
36386;BME280;24125;47.482;8.770;2023-04-01T01:29:11;95315.50;;;11.97;79.81
36386;BME280;24125;47.482;8.770;2023-04-01T01:31:50;95290.31;;;11.98;79.25
36386;BME280;24125;47.482;8.770;2023-04-01T01:34:27;95301.34;;;11.97;79.93
36386;BME280;24125;47.482;8.770;2023-04-01T01:37:05;95312.47;;;11.99;80.47
36386;BME280;24125;47.482;8.770;2023-04-01T01:39:41;95307.91;;;11.99;79.50
36386;BME280;24125;47.482;8.770;2023-04-01T01:42:15;95310.56;;;11.99;79.37
36386;BME280;24125;47.482;8.770;2023-04-01T01:44:50;95306.00;;;12.00;79.11
36386;BME280;24125;47.482;8.770;2023-04-01T01:47:23;95299.88;;;11.99;79.34
36386;BME280;24125;47.482;8.770;2023-04-01T01:49:57;95306.34;;;11.98;78.93
36386;BME280;24125;47.482;8.770;2023-04-01T01:52:32;95293.69;;;11.95;78.13
36386;BME280;24125;47.482;8.770;2023-04-01T01:57:52;95272.63;;;11.94;78.22
36386;BME280;24125;47.482;8.770;2023-04-01T02:00:27;95281.03;;;11.92;79.22
36386;BME280;24125;47.482;8.770;2023-04-01T02:03:00;95280.25;;;11.92;79.28
36386;BME280;24125;47.482;8.770;2023-04-01T02:05:33;95275.31;;;11.94;79.77
36386;BME280;24125;47.482;8.770;2023-04-01T02:08:09;95279.91;;;11.93;79.68
36386;BME280;24125;47.482;8.770;2023-04-01T02:10:45;95280.25;;;11.92;79.66
36386;BME280;24125;47.482;8.770;2023-04-01T02:13:21;95274.47;;;11.90;79.69
36386;BME280;24125;47.482;8.770;2023-04-01T02:15:59;95280.19;;;11.88;78.98
36386;BME280;24125;47.482;8.770;2023-04-01T02:18:33;95284.75;;;11.88;79.01
36386;BME280;24125;47.482;8.770;2023-04-01T02:21:09;95274.78;;;11.85;79.11
36386;BME280;24125;47.482;8.770;2023-04-01T02:23:43;95266.69;;;11.81;77.96
36386;BME280;24125;47.482;8.770;2023-04-01T02:26:18;95286.19;;;11.82;78.66
36386;BME280;24125;47.482;8.770;2023-04-01T02:28:51;95271.59;;;11.79;78.91
36386;BME280;24125;47.482;8.770;2023-04-01T02:31:25;95272.34;;;11.76;73.27
36386;BME280;24125;47.482;8.770;2023-04-01T02:33:58;95280.34;;;11.76;76.27
36386;BME280;24125;47.482;8.770;2023-04-01T02:36:31;95276.13;;;11.75;77.47
36386;BME280;24125;47.482;8.770;2023-04-01T02:39:05;95252.31;;;11.70;77.33
36386;BME280;24125;47.482;8.770;2023-04-01T02:41:39;95269.41;;;11.65;77.37
36386;BME280;24125;47.482;8.770;2023-04-01T02:44:13;95278.50;;;11.61;76.51
36386;BME280;24125;47.482;8.770;2023-04-01T02:46:46;95276.13;;;11.56;77.14
36386;BME280;24125;47.482;8.770;2023-04-01T02:49:18;95279.13;;;11.54;78.15
36386;BME280;24125;47.482;8.770;2023-04-01T02:51:51;95270.25;;;11.50;78.21
36386;BME280;24125;47.482;8.770;2023-04-01T02:54:26;95282.09;;;11.49;78.90
36386;BME280;24125;47.482;8.770;2023-04-01T02:56:58;95271.41;;;11.49;78.32
36386;BME280;24125;47.482;8.770;2023-04-01T02:59:31;95269.13;;;11.51;79.17
36386;BME280;24125;47.482;8.770;2023-04-01T03:02:05;95268.00;;;11.52;78.83
36386;BME280;24125;47.482;8.770;2023-04-01T03:04:38;95268.78;;;11.53;78.62
36386;BME280;24125;47.482;8.770;2023-04-01T03:07:10;95266.88;;;11.53;78.30
36386;BME280;24125;47.482;8.770;2023-04-01T03:09:45;95254.66;;;11.52;78.93
36386;BME280;24125;47.482;8.770;2023-04-01T03:12:17;95253.81;;;11.48;76.95
36386;BME280;24125;47.482;8.770;2023-04-01T03:14:50;95262.97;;;11.47;78.19
36386;BME280;24125;47.482;8.770;2023-04-01T03:17:23;95274.78;;;11.46;77.62
36386;BME280;24125;47.482;8.770;2023-04-01T03:19:56;95271.66;;;11.44;77.39
36386;BME280;24125;47.482;8.770;2023-04-01T03:22:28;95273.91;;;11.42;77.32
36386;BME280;24125;47.482;8.770;2023-04-01T03:25:03;95272.31;;;11.38;76.66
36386;BME280;24125;47.482;8.770;2023-04-01T03:27:36;95272.16;;;11.30;76.27
36386;BME280;24125;47.482;8.770;2023-04-01T03:30:09;95267.88;;;11.26;76.42
36386;BME280;24125;47.482;8.770;2023-04-01T03:32:42;95258.59;;;11.20;76.09
36386;BME280;24125;47.482;8.770;2023-04-01T03:35:14;95263.00;;;11.12;76.07
36386;BME280;24125;47.482;8.770;2023-04-01T03:37:47;95256.75;;;11.05;75.99
36386;BME280;24125;47.482;8.770;2023-04-01T03:40:22;95266.91;;;10.99;75.66
36386;BME280;24125;47.482;8.770;2023-04-01T03:42:55;95251.88;;;10.91;76.38
36386;BME280;24125;47.482;8.770;2023-04-01T03:45:28;95254.47;;;10.87;76.21
36386;BME280;24125;47.482;8.770;2023-04-01T03:48:01;95255.09;;;10.81;76.96
36386;BME280;24125;47.482;8.770;2023-04-01T03:50:34;95246.22;;;10.77;75.57
36386;BME280;24125;47.482;8.770;2023-04-01T03:53:06;95245.03;;;10.74;76.39
36386;BME280;24125;47.482;8.770;2023-04-01T03:55:41;95257.19;;;10.72;76.85
36386;BME280;24125;47.482;8.770;2023-04-01T03:58:13;95264.00;;;10.69;76.89
36386;BME280;24125;47.482;8.770;2023-04-01T04:00:46;95270.88;;;10.70;77.28
36386;BME280;24125;47.482;8.770;2023-04-01T04:03:20;95270.09;;;10.70;77.48
36386;BME280;24125;47.482;8.770;2023-04-01T04:05:53;95266.66;;;10.69;76.84
36386;BME280;24125;47.482;8.770;2023-04-01T04:08:27;95264.34;;;10.68;78.08
36386;BME280;24125;47.482;8.770;2023-04-01T04:11:01;95278.44;;;10.68;77.51
36386;BME280;24125;47.482;8.770;2023-04-01T04:13:33;95273.47;;;10.67;76.53
36386;BME280;24125;47.482;8.770;2023-04-01T04:16:07;95279.56;;;10.67;77.19
36386;BME280;24125;47.482;8.770;2023-04-01T04:18:41;95278.88;;;10.70;76.82
36386;BME280;24125;47.482;8.770;2023-04-01T04:21:14;95290.75;;;10.73;77.30
36386;BME280;24125;47.482;8.770;2023-04-01T04:23:47;95282.84;;;10.76;78.00
36386;BME280;24125;47.482;8.770;2023-04-01T04:26:21;95279.47;;;10.79;78.59
36386;BME280;24125;47.482;8.770;2023-04-01T04:28:54;95276.47;;;10.81;78.33
36386;BME280;24125;47.482;8.770;2023-04-01T04:31:27;95274.97;;;10.83;78.86
36386;BME280;24125;47.482;8.770;2023-04-01T04:34:00;95277.31;;;10.85;78.18
36386;BME280;24125;47.482;8.770;2023-04-01T04:36:33;95265.16;;;10.87;77.94
36386;BME280;24125;47.482;8.770;2023-04-01T04:39:06;95273.94;;;10.88;77.82
36386;BME280;24125;47.482;8.770;2023-04-01T04:41:40;95266.72;;;10.88;77.26
36386;BME280;24125;47.482;8.770;2023-04-01T04:44:13;95274.72;;;10.88;78.53
36386;BME280;24125;47.482;8.770;2023-04-01T04:46:46;95285.41;;;10.88;78.03
36386;BME280;24125;47.482;8.770;2023-04-01T04:49:19;95280.47;;;10.90;77.58
36386;BME280;24125;47.482;8.770;2023-04-01T04:51:52;95275.91;;;10.91;77.91
36386;BME280;24125;47.482;8.770;2023-04-01T04:54:25;95286.97;;;10.89;78.12
36386;BME280;24125;47.482;8.770;2023-04-01T04:56:59;95272.84;;;10.89;77.51
36386;BME280;24125;47.482;8.770;2023-04-01T04:59:32;95290.38;;;10.90;77.06
36386;BME280;24125;47.482;8.770;2023-04-01T05:02:04;95291.59;;;10.92;76.52
36386;BME280;24125;47.482;8.770;2023-04-01T05:04:37;95309.94;;;10.94;77.09
36386;BME280;24125;47.482;8.770;2023-04-01T05:07:10;95299.69;;;10.96;77.99
36386;BME280;24125;47.482;8.770;2023-04-01T05:09:43;95302.00;;;10.98;77.51
36386;BME280;24125;47.482;8.770;2023-04-01T05:12:19;95296.72;;;11.01;78.67
36386;BME280;24125;47.482;8.770;2023-04-01T05:14:52;95307.84;;;11.03;78.74
36386;BME280;24125;47.482;8.770;2023-04-01T05:17:25;95305.94;;;11.04;78.34
36386;BME280;24125;47.482;8.770;2023-04-01T05:19:57;95300.25;;;11.05;78.51
36386;BME280;24125;47.482;8.770;2023-04-01T05:22:30;95319.38;;;11.07;78.15
36386;BME280;24125;47.482;8.770;2023-04-01T05:25:03;95303.34;;;11.07;77.96
36386;BME280;24125;47.482;8.770;2023-04-01T05:27:37;95318.69;;;11.10;78.34
36386;BME280;24125;47.482;8.770;2023-04-01T05:30:10;95306.19;;;11.14;78.48
36386;BME280;24125;47.482;8.770;2023-04-01T05:32:43;95311.16;;;11.16;78.58
36386;BME280;24125;47.482;8.770;2023-04-01T05:35:16;95306.69;;;11.20;78.66
36386;BME280;24125;47.482;8.770;2023-04-01T05:37:49;95313.63;;;11.24;78.52
36386;BME280;24125;47.482;8.770;2023-04-01T05:40:22;95316.72;;;11.26;79.36
36386;BME280;24125;47.482;8.770;2023-04-01T05:42:56;95312.59;;;11.29;78.72
36386;BME280;24125;47.482;8.770;2023-04-01T05:45:29;95336.38;;;11.34;78.71
36386;BME280;24125;47.482;8.770;2023-04-01T05:48:02;95321.53;;;11.37;78.58
36386;BME280;24125;47.482;8.770;2023-04-01T05:50:35;95338.44;;;11.41;78.76
36386;BME280;24125;47.482;8.770;2023-04-01T05:53:08;95336.16;;;11.43;78.38
36386;BME280;24125;47.482;8.770;2023-04-01T05:55:41;95349.59;;;11.46;79.62
36386;BME280;24125;47.482;8.770;2023-04-01T05:58:15;95338.56;;;11.48;79.12
36386;BME280;24125;47.482;8.770;2023-04-01T06:00:48;95340.91;;;11.49;78.60
36386;BME280;24125;47.482;8.770;2023-04-01T06:03:38;95322.97;;;11.50;79.15
36386;BME280;24125;47.482;8.770;2023-04-01T06:06:13;95343.63;;;11.53;78.75
36386;BME280;24125;47.482;8.770;2023-04-01T06:08:46;95326.81;;;11.52;77.47
36386;BME280;24125;47.482;8.770;2023-04-01T06:11:23;95323.44;;;11.55;79.28
36386;BME280;24125;47.482;8.770;2023-04-01T06:16:52;95338.06;;;11.61;78.89
36386;BME280;24125;47.482;8.770;2023-04-01T06:19:31;95315.66;;;11.66;78.58
36386;BME280;24125;47.482;8.770;2023-04-01T06:22:21;95307.69;;;11.69;78.98
36386;BME280;24125;47.482;8.770;2023-04-01T06:25:04;95325.34;;;11.74;78.31
36386;BME280;24125;47.482;8.770;2023-04-01T06:27:45;95313.19;;;11.77;78.33
36386;BME280;24125;47.482;8.770;2023-04-01T06:30:24;95306.03;;;11.81;78.60
36386;BME280;24125;47.482;8.770;2023-04-01T06:33:19;95317.63;;;11.88;79.60
36386;BME280;24125;47.482;8.770;2023-04-01T06:36:01;95326.13;;;11.94;79.80
36386;BME280;24125;47.482;8.770;2023-04-01T06:38:49;95328.97;;;12.01;80.49
36386;BME280;24125;47.482;8.770;2023-04-01T06:44:06;95315.81;;;12.15;79.73
36386;BME280;24125;47.482;8.770;2023-04-01T06:46:43;95311.38;;;12.23;79.34
36386;BME280;24125;47.482;8.770;2023-04-01T06:52:17;95299.41;;;12.39;79.82
36386;BME280;24125;47.482;8.770;2023-04-01T06:54:53;95303.41;;;12.49;80.40
36386;BME280;24125;47.482;8.770;2023-04-01T06:57:29;95298.56;;;12.58;79.83
36386;BME280;24125;47.482;8.770;2023-04-01T07:00:04;95288.47;;;12.71;81.22
36386;BME280;24125;47.482;8.770;2023-04-01T07:02:45;95292.06;;;12.82;81.48
36386;BME280;24125;47.482;8.770;2023-04-01T07:05:25;95293.41;;;12.95;81.13
36386;BME280;24125;47.482;8.770;2023-04-01T07:08:04;95281.28;;;13.05;80.88
36386;BME280;24125;47.482;8.770;2023-04-01T07:10:42;95305.97;;;13.17;81.03
36386;BME280;24125;47.482;8.770;2023-04-01T07:13:18;95289.34;;;13.31;81.14
36386;BME280;24125;47.482;8.770;2023-04-01T07:15:58;95300.94;;;13.42;80.69
36386;BME280;24125;47.482;8.770;2023-04-01T07:18:34;95298.75;;;13.51;80.82
36386;BME280;24125;47.482;8.770;2023-04-01T07:21:10;95312.66;;;13.60;80.61
36386;BME280;24125;47.482;8.770;2023-04-01T07:23:49;95311.63;;;13.69;78.31
36386;BME280;24125;47.482;8.770;2023-04-01T07:26:24;95296.72;;;13.71;78.86
36386;BME280;24125;47.482;8.770;2023-04-01T07:28:58;95302.13;;;13.75;74.75
36386;BME280;24125;47.482;8.770;2023-04-01T07:31:36;95317.84;;;13.76;78.07
36386;BME280;24125;47.482;8.770;2023-04-01T07:34:15;95320.16;;;13.78;77.24
36386;BME280;24125;47.482;8.770;2023-04-01T07:36:52;95319.38;;;13.77;76.18
36386;BME280;24125;47.482;8.770;2023-04-01T07:39:31;95303.69;;;13.79;78.02
36386;BME280;24125;47.482;8.770;2023-04-01T07:42:07;95330.09;;;13.77;77.28
36386;BME280;24125;47.482;8.770;2023-04-01T07:44:44;95338.94;;;13.78;78.41
36386;BME280;24125;47.482;8.770;2023-04-01T07:47:25;95335.13;;;13.79;77.67
36386;BME280;24125;47.482;8.770;2023-04-01T07:50:06;95329.75;;;13.79;77.91
36386;BME280;24125;47.482;8.770;2023-04-01T07:52:43;95341.59;;;13.74;78.17
36386;BME280;24125;47.482;8.770;2023-04-01T07:55:19;95341.59;;;13.74;77.69
36386;BME280;24125;47.482;8.770;2023-04-01T07:57:57;95341.19;;;13.72;77.91
36386;BME280;24125;47.482;8.770;2023-04-01T08:00:34;95333.13;;;13.72;77.95
36386;BME280;24125;47.482;8.770;2023-04-01T08:03:14;95347.72;;;13.75;78.15
36386;BME280;24125;47.482;8.770;2023-04-01T08:05:50;95338.16;;;13.77;77.39
36386;BME280;24125;47.482;8.770;2023-04-01T08:08:29;95334.75;;;13.80;78.69
36386;BME280;24125;47.482;8.770;2023-04-01T08:11:10;95340.91;;;13.84;78.27
36386;BME280;24125;47.482;8.770;2023-04-01T08:13:46;95331.78;;;13.89;79.37
36386;BME280;24125;47.482;8.770;2023-04-01T08:16:26;95334.13;;;13.94;78.64
36386;BME280;24125;47.482;8.770;2023-04-01T08:19:06;95336.09;;;13.97;78.53
36386;BME280;24125;47.482;8.770;2023-04-01T08:21:47;95336.88;;;14.01;78.52
36386;BME280;24125;47.482;8.770;2023-04-01T08:24:24;95350.00;;;14.06;77.62
36386;BME280;24125;47.482;8.770;2023-04-01T08:27:11;95346.19;;;14.07;75.24
36386;BME280;24125;47.482;8.770;2023-04-01T08:29:48;95337.34;;;14.07;75.68
36386;BME280;24125;47.482;8.770;2023-04-01T08:32:23;95343.50;;;14.07;76.37
36386;BME280;24125;47.482;8.770;2023-04-01T08:35:01;95337.72;;;14.05;77.11
36386;BME280;24125;47.482;8.770;2023-04-01T08:37:39;95348.81;;;14.04;77.53
36386;BME280;24125;47.482;8.770;2023-04-01T08:40:22;95349.56;;;14.01;76.86
36386;BME280;24125;47.482;8.770;2023-04-01T08:43:02;95346.06;;;13.96;77.11
36386;BME280;24125;47.482;8.770;2023-04-01T08:48:34;95343.28;;;13.89;76.99
36386;BME280;24125;47.482;8.770;2023-04-01T08:51:23;95349.34;;;13.83;75.81
36386;BME280;24125;47.482;8.770;2023-04-01T08:54:03;95348.13;;;13.77;76.24
36386;BME280;24125;47.482;8.770;2023-04-01T08:56:40;95350.78;;;13.73;76.61
36386;BME280;24125;47.482;8.770;2023-04-01T08:59:26;95345.72;;;13.68;76.40
36386;BME280;24125;47.482;8.770;2023-04-01T09:02:05;95344.13;;;13.64;77.03
36386;BME280;24125;47.482;8.770;2023-04-01T09:04:51;95338.69;;;13.56;75.56
36386;BME280;24125;47.482;8.770;2023-04-01T09:07:33;95350.91;;;13.54;76.60
36386;BME280;24125;47.482;8.770;2023-04-01T09:13:05;95353.09;;;13.45;76.27
36386;BME280;24125;47.482;8.770;2023-04-01T09:21:29;95362.59;;;13.39;76.23
36386;BME280;24125;47.482;8.770;2023-04-01T09:24:13;95365.25;;;13.39;77.27
36386;BME280;24125;47.482;8.770;2023-04-01T09:26:59;95369.50;;;13.40;77.01
36386;BME280;24125;47.482;8.770;2023-04-01T09:35:19;95364.16;;;13.43;77.16
36386;BME280;24125;47.482;8.770;2023-04-01T09:37:57;95350.41;;;13.45;77.33
36386;BME280;24125;47.482;8.770;2023-04-01T09:40:34;95349.69;;;13.48;77.63
36386;BME280;24125;47.482;8.770;2023-04-01T09:43:16;95355.13;;;13.55;77.29
36386;BME280;24125;47.482;8.770;2023-04-01T09:45:58;95356.34;;;13.61;77.61
36386;BME280;24125;47.482;8.770;2023-04-01T09:51:29;95364.97;;;13.74;77.63
36386;BME280;24125;47.482;8.770;2023-04-01T09:54:16;95360.44;;;13.81;78.42
36386;BME280;24125;47.482;8.770;2023-04-01T09:57:00;95356.72;;;13.89;78.48
36386;BME280;24125;47.482;8.770;2023-04-01T09:59:49;95357.19;;;13.98;78.81
36386;BME280;24125;47.482;8.770;2023-04-01T10:02:47;95357.69;;;14.08;79.58
36386;BME280;24125;47.482;8.770;2023-04-01T10:05:32;95350.91;;;14.17;78.75
36386;BME280;24125;47.482;8.770;2023-04-01T10:08:20;95336.41;;;14.29;78.60
36386;BME280;24125;47.482;8.770;2023-04-01T10:11:18;95340.44;;;14.42;80.08
36386;BME280;24125;47.482;8.770;2023-04-01T10:16:57;95337.59;;;14.72;79.66
36386;BME280;24125;47.482;8.770;2023-04-01T10:22:40;95335.19;;;15.07;81.01
36386;BME280;24125;47.482;8.770;2023-04-01T10:25:29;95346.47;;;15.31;82.23
36386;BME280;24125;47.482;8.770;2023-04-01T10:36:51;95343.00;;;15.96;81.04
36386;BME280;24125;47.482;8.770;2023-04-01T10:39:31;95349.56;;;16.05;79.96
36386;BME280;24125;47.482;8.770;2023-04-01T10:53:40;95341.59;;;16.55;78.65
36386;BME280;24125;47.482;8.770;2023-04-01T10:59:24;95343.94;;;16.78;79.74
36386;BME280;24125;47.482;8.770;2023-04-01T11:05:16;95335.47;;;16.97;79.09
36386;BME280;24125;47.482;8.770;2023-04-01T11:08:10;95354.72;;;17.06;77.01
36386;BME280;24125;47.482;8.770;2023-04-01T11:10:57;95333.16;;;17.13;78.13
36386;BME280;24125;47.482;8.770;2023-04-01T11:22:29;95343.50;;;17.43;76.38
36386;BME280;24125;47.482;8.770;2023-04-01T11:25:20;95330.00;;;17.50;78.82
36386;BME280;24125;47.482;8.770;2023-04-01T11:28:04;95348.50;;;17.55;79.06
36386;BME280;24125;47.482;8.770;2023-04-01T11:30:53;95339.66;;;17.62;75.49
36386;BME280;24125;47.482;8.770;2023-04-01T11:33:33;95351.56;;;17.68;75.15
36386;BME280;24125;47.482;8.770;2023-04-01T11:36:11;95348.88;;;17.71;76.80
36386;BME280;24125;47.482;8.770;2023-04-01T11:38:56;95354.63;;;17.77;78.44
36386;BME280;24125;47.482;8.770;2023-04-01T11:41:35;95349.59;;;17.83;77.26
36386;BME280;24125;47.482;8.770;2023-04-01T11:44:16;95331.06;;;17.88;79.10
36386;BME280;24125;47.482;8.770;2023-04-01T11:47:00;95349.16;;;17.95;77.50
36386;BME280;24125;47.482;8.770;2023-04-01T11:49:42;95345.31;;;17.96;77.61
36386;BME280;24125;47.482;8.770;2023-04-01T11:52:31;95331.41;;;17.97;78.70
36386;BME280;24125;47.482;8.770;2023-04-01T11:55:10;95341.44;;;17.97;76.38
36386;BME280;24125;47.482;8.770;2023-04-01T11:57:51;95333.34;;;17.93;76.43
36386;BME280;24125;47.482;8.770;2023-04-01T12:00:35;95348.41;;;17.91;77.13
36386;BME280;24125;47.482;8.770;2023-04-01T12:03:18;95338.78;;;17.86;74.96
36386;BME280;24125;47.482;8.770;2023-04-01T12:05:58;95368.88;;;17.85;75.30
36386;BME280;24125;47.482;8.770;2023-04-01T12:08:37;95355.41;;;17.81;76.05
36386;BME280;24125;47.482;8.770;2023-04-01T12:11:15;95351.16;;;17.77;75.32
36386;BME280;24125;47.482;8.770;2023-04-01T12:13:51;95350.41;;;17.69;75.22
36386;BME280;24125;47.482;8.770;2023-04-01T12:16:39;95367.75;;;17.64;75.57
36386;BME280;24125;47.482;8.770;2023-04-01T12:19:18;95369.31;;;17.58;74.35
36386;BME280;24125;47.482;8.770;2023-04-01T12:21:56;95369.31;;;17.51;71.54
36386;BME280;24125;47.482;8.770;2023-04-01T12:24:37;95365.47;;;17.42;70.91
36386;BME280;24125;47.482;8.770;2023-04-01T12:30:10;95353.94;;;17.34;72.51
36386;BME280;24125;47.482;8.770;2023-04-01T12:32:49;95348.53;;;17.34;74.78
36386;BME280;24125;47.482;8.770;2023-04-01T12:35:26;95347.78;;;17.33;74.19
36386;BME280;24125;47.482;8.770;2023-04-01T12:38:07;95350.84;;;17.32;72.61
36386;BME280;24125;47.482;8.770;2023-04-01T12:40:46;95349.31;;;17.31;73.15
36386;BME280;24125;47.482;8.770;2023-04-01T12:46:11;95357.03;;;17.25;72.90
36386;BME280;24125;47.482;8.770;2023-04-01T12:48:56;95368.22;;;17.20;72.57
36386;BME280;24125;47.482;8.770;2023-04-01T12:51:36;95370.91;;;17.13;69.33
36386;BME280;24125;47.482;8.770;2023-04-01T12:54:18;95361.28;;;17.02;69.64
36386;BME280;24125;47.482;8.770;2023-04-01T12:56:58;95346.28;;;16.86;70.48
36386;BME280;24125;47.482;8.770;2023-04-01T12:59:44;95359.72;;;16.72;70.09
36386;BME280;24125;47.482;8.770;2023-04-01T13:02:25;95354.69;;;16.60;71.60
36386;BME280;24125;47.482;8.770;2023-04-01T13:05:09;95350.06;;;16.50;71.62
36386;BME280;24125;47.482;8.770;2023-04-01T13:07:52;95334.25;;;16.45;73.48
36386;BME280;24125;47.482;8.770;2023-04-01T13:10:38;95343.91;;;16.42;74.41
36386;BME280;24125;47.482;8.770;2023-04-01T13:13:19;95339.28;;;16.43;74.73
36386;BME280;24125;47.482;8.770;2023-04-01T13:15:56;95340.78;;;16.44;75.17
36386;BME280;24125;47.482;8.770;2023-04-01T13:18:32;95328.88;;;16.48;74.27
36386;BME280;24125;47.482;8.770;2023-04-01T13:21:11;95328.50;;;16.53;75.51
36386;BME280;24125;47.482;8.770;2023-04-01T13:23:51;95331.19;;;16.60;75.41
36386;BME280;24125;47.482;8.770;2023-04-01T13:26:29;95330.09;;;16.69;76.01
36386;BME280;24125;47.482;8.770;2023-04-01T13:29:07;95323.91;;;16.79;72.21
36386;BME280;24125;47.482;8.770;2023-04-01T13:31:59;95318.16;;;16.87;75.27
36386;BME280;24125;47.482;8.770;2023-04-01T13:34:39;95323.16;;;17.00;73.08
36386;BME280;24125;47.482;8.770;2023-04-01T13:37:23;95325.06;;;17.13;75.09
36386;BME280;24125;47.482;8.770;2023-04-01T13:40:04;95319.66;;;17.24;72.09
36386;BME280;24125;47.482;8.770;2023-04-01T13:42:47;95328.09;;;17.40;78.44
36386;BME280;24125;47.482;8.770;2023-04-01T13:45:22;95332.31;;;17.52;78.63
36386;BME280;24125;47.482;8.770;2023-04-01T13:47:59;95333.44;;;17.61;77.74
36386;BME280;24125;47.482;8.770;2023-04-01T13:50:46;95336.50;;;17.74;79.52
36386;BME280;24125;47.482;8.770;2023-04-01T13:56:16;95331.41;;;17.94;79.28
36386;BME280;24125;47.482;8.770;2023-04-01T14:01:46;95332.16;;;18.05;76.52
36386;BME280;24125;47.482;8.770;2023-04-01T14:04:29;95323.25;;;18.08;77.31
36386;BME280;24125;47.482;8.770;2023-04-01T14:07:08;95322.47;;;18.11;75.35
36386;BME280;24125;47.482;8.770;2023-04-01T14:09:52;95307.41;;;18.14;74.84
36386;BME280;24125;47.482;8.770;2023-04-01T14:12:35;95310.84;;;18.18;74.33
36386;BME280;24125;47.482;8.770;2023-04-01T14:18:02;95315.06;;;18.26;75.02
36386;BME280;24125;47.482;8.770;2023-04-01T14:20:39;95309.63;;;18.29;73.62
36386;BME280;24125;47.482;8.770;2023-04-01T14:26:04;95320.44;;;18.29;72.65
36386;BME280;24125;47.482;8.770;2023-04-01T14:28:44;95321.97;;;18.30;73.69
36386;BME280;24125;47.482;8.770;2023-04-01T14:31:27;95313.53;;;18.25;68.30
36386;BME280;24125;47.482;8.770;2023-04-01T14:34:05;95326.66;;;18.23;72.49
36386;BME280;24125;47.482;8.770;2023-04-01T14:36:50;95322.81;;;18.20;73.17
36386;BME280;24125;47.482;8.770;2023-04-01T14:42:18;95329.84;;;18.07;74.25
36386;BME280;24125;47.482;8.770;2023-04-01T14:47:48;95373.13;;;17.86;70.67
36386;BME280;24125;47.482;8.770;2023-04-01T14:50:24;95372.00;;;17.73;68.60
36386;BME280;24125;47.482;8.770;2023-04-01T14:52:59;95395.53;;;17.54;65.32
36386;BME280;24125;47.482;8.770;2023-04-01T14:55:47;95423.69;;;17.25;63.01
36386;BME280;24125;47.482;8.770;2023-04-01T14:58:22;95410.97;;;16.93;66.75
36386;BME280;24125;47.482;8.770;2023-04-01T15:01:06;95391.25;;;16.57;66.56
36386;BME280;24125;47.482;8.770;2023-04-01T15:03:47;95368.44;;;16.16;67.22
36386;BME280;24125;47.482;8.770;2023-04-01T15:09:16;95370.00;;;15.44;69.16
36386;BME280;24125;47.482;8.770;2023-04-01T15:11:56;95372.50;;;15.16;70.13
36386;BME280;24125;47.482;8.770;2023-04-01T15:17:35;95387.16;;;14.75;71.61
36386;BME280;24125;47.482;8.770;2023-04-01T15:20:19;95391.22;;;14.58;72.02
36386;BME280;24125;47.482;8.770;2023-04-01T15:23:01;95391.44;;;14.42;72.25
36386;BME280;24125;47.482;8.770;2023-04-01T15:25:43;95396.66;;;14.31;72.93
36386;BME280;24125;47.482;8.770;2023-04-01T15:28:20;95372.38;;;14.21;73.42
36386;BME280;24125;47.482;8.770;2023-04-01T15:30:56;95373.03;;;14.11;73.15
36386;BME280;24125;47.482;8.770;2023-04-01T15:33:36;95355.31;;;14.03;73.79
36386;BME280;24125;47.482;8.770;2023-04-01T15:36:19;95363.28;;;13.95;73.71